sensor_id;sensor_type;location;lat;lon;timestamp;P1;P2;P0
45700;PMS5003;36277;32.852;-116.998;2022-12-07T00:01:54;0.00;0.00;0.00
45700;PMS5003;36277;32.852;-116.998;2022-12-07T00:04:20;0.00;0.00;0.00
45700;PMS5003;36277;32.852;-116.998;2022-12-07T00:06:49;1.00;1.00;1.00
45700;PMS5003;36277;32.852;-116.998;2022-12-07T00:09:18;0.00;0.00;0.00
45700;PMS5003;36277;32.852;-116.998;2022-12-07T00:11:45;0.00;0.00;0.00
45700;PMS5003;36277;32.852;-116.998;2022-12-07T00:14:15;0.00;0.00;0.00
45700;PMS5003;36277;32.852;-116.998;2022-12-07T00:16:42;0.00;0.00;0.00
45700;PMS5003;36277;32.852;-116.998;2022-12-07T00:19:10;0.00;0.00;0.00
45700;PMS5003;36277;32.852;-116.998;2022-12-07T00:21:37;0.00;0.00;0.00
45700;PMS5003;36277;32.852;-116.998;2022-12-07T00:24:04;0.00;0.00;0.00
45700;PMS5003;36277;32.852;-116.998;2022-12-07T00:26:35;0.00;0.00;0.00
45700;PMS5003;36277;32.852;-116.998;2022-12-07T00:29:07;0.00;0.00;0.00
45700;PMS5003;36277;32.852;-116.998;2022-12-07T00:31:44;0.00;0.00;0.00
45700;PMS5003;36277;32.852;-116.998;2022-12-07T00:34:15;0.00;0.00;0.00
45700;PMS5003;36277;32.852;-116.998;2022-12-07T00:36:43;0.00;0.00;0.00
45700;PMS5003;36277;32.852;-116.998;2022-12-07T00:39:10;0.00;0.00;0.00
45700;PMS5003;36277;32.852;-116.998;2022-12-07T00:41:36;0.00;0.00;0.00
45700;PMS5003;36277;32.852;-116.998;2022-12-07T00:44:02;0.00;0.00;0.00
45700;PMS5003;36277;32.852;-116.998;2022-12-07T00:46:29;0.00;0.00;0.00
45700;PMS5003;36277;32.852;-116.998;2022-12-07T00:48:55;0.00;0.00;0.00
45700;PMS5003;36277;32.852;-116.998;2022-12-07T00:51:23;0.00;0.00;0.00
45700;PMS5003;36277;32.852;-116.998;2022-12-07T00:53:50;0.00;0.00;0.00
45700;PMS5003;36277;32.852;-116.998;2022-12-07T00:56:18;0.00;0.00;0.00
45700;PMS5003;36277;32.852;-116.998;2022-12-07T00:58:56;0.00;0.00;0.00
45700;PMS5003;36277;32.852;-116.998;2022-12-07T01:01:24;0.00;0.00;0.00
45700;PMS5003;36277;32.852;-116.998;2022-12-07T01:03:52;0.00;0.00;0.00
45700;PMS5003;36277;32.852;-116.998;2022-12-07T01:06:19;0.00;0.00;0.00
45700;PMS5003;36277;32.852;-116.998;2022-12-07T01:08:47;0.00;0.00;0.00
45700;PMS5003;36277;32.852;-116.998;2022-12-07T01:11:18;0.00;0.00;0.00
45700;PMS5003;36277;32.852;-116.998;2022-12-07T01:13:46;0.00;0.00;0.00
45700;PMS5003;36277;32.852;-116.998;2022-12-07T01:16:13;0.00;0.00;0.00
45700;PMS5003;36277;32.852;-116.998;2022-12-07T01:18:41;0.00;0.00;0.00
45700;PMS5003;36277;32.852;-116.998;2022-12-07T01:21:12;0.00;0.00;0.00
45700;PMS5003;36277;32.852;-116.998;2022-12-07T01:23:40;0.00;0.00;0.00
45700;PMS5003;36277;32.852;-116.998;2022-12-07T01:26:09;0.00;0.00;0.00
45700;PMS5003;36277;32.852;-116.998;2022-12-07T01:28:37;0.00;0.00;0.00
45700;PMS5003;36277;32.852;-116.998;2022-12-07T01:31:05;0.00;0.00;0.00
45700;PMS5003;36277;32.852;-116.998;2022-12-07T01:33:55;0.00;0.00;0.00
45700;PMS5003;36277;32.852;-116.998;2022-12-07T01:36:23;0.00;0.00;0.00
45700;PMS5003;36277;32.852;-116.998;2022-12-07T01:38:53;0.60;0.60;0.60
45700;PMS5003;36277;32.852;-116.998;2022-12-07T01:41:22;0.00;0.00;0.00
45700;PMS5003;36277;32.852;-116.998;2022-12-07T01:44:10;0.80;0.80;0.00
45700;PMS5003;36277;32.852;-116.998;2022-12-07T01:46:40;0.00;0.00;0.00
45700;PMS5003;36277;32.852;-116.998;2022-12-07T01:49:09;0.00;0.00;0.00
45700;PMS5003;36277;32.852;-116.998;2022-12-07T01:51:40;0.00;0.00;0.00
45700;PMS5003;36277;32.852;-116.998;2022-12-07T01:54:09;1.00;1.00;0.20
45700;PMS5003;36277;32.852;-116.998;2022-12-07T01:56:38;0.00;0.00;0.00
45700;PMS5003;36277;32.852;-116.998;2022-12-07T01:59:08;0.20;0.20;0.00
45700;PMS5003;36277;32.852;-116.998;2022-12-07T02:01:34;0.00;0.00;0.00
45700;PMS5003;36277;32.852;-116.998;2022-12-07T02:04:00;0.00;0.00;0.00
45700;PMS5003;36277;32.852;-116.998;2022-12-07T02:06:27;0.00;0.00;0.00
45700;PMS5003;36277;32.852;-116.998;2022-12-07T02:08:54;0.00;0.00;0.00
45700;PMS5003;36277;32.852;-116.998;2022-12-07T02:11:21;0.60;0.60;0.00
45700;PMS5003;36277;32.852;-116.998;2022-12-07T02:13:48;0.20;0.20;0.00
45700;PMS5003;36277;32.852;-116.998;2022-12-07T02:27:17;0.60;0.60;0.60
45700;PMS5003;36277;32.852;-116.998;2022-12-07T02:30:15;0.00;0.00;0.00
45700;PMS5003;36277;32.852;-116.998;2022-12-07T02:32:56;0.00;0.00;0.00
45700;PMS5003;36277;32.852;-116.998;2022-12-07T02:38:04;0.00;0.00;0.00
45700;PMS5003;36277;32.852;-116.998;2022-12-07T02:40:43;1.20;1.20;0.60
45700;PMS5003;36277;32.852;-116.998;2022-12-07T02:43:24;0.00;0.00;0.00
45700;PMS5003;36277;32.852;-116.998;2022-12-07T02:45:57;0.00;0.00;0.00
45700;PMS5003;36277;32.852;-116.998;2022-12-07T02:48:31;0.00;0.00;0.00
45700;PMS5003;36277;32.852;-116.998;2022-12-07T02:50:59;0.00;0.00;0.00
45700;PMS5003;36277;32.852;-116.998;2022-12-07T02:53:32;0.20;0.20;0.00
45700;PMS5003;36277;32.852;-116.998;2022-12-07T02:56:08;0.40;0.40;0.20
45700;PMS5003;36277;32.852;-116.998;2022-12-07T03:09:57;0.00;0.00;0.00
45700;PMS5003;36277;32.852;-116.998;2022-12-07T03:18:36;1.00;1.00;1.00
45700;PMS5003;36277;32.852;-116.998;2022-12-07T03:21:08;1.00;1.00;1.00
45700;PMS5003;36277;32.852;-116.998;2022-12-07T03:23:40;0.20;0.20;0.20
45700;PMS5003;36277;32.852;-116.998;2022-12-07T03:26:10;1.00;1.00;1.00
45700;PMS5003;36277;32.852;-116.998;2022-12-07T03:28:42;0.00;0.00;0.00
45700;PMS5003;36277;32.852;-116.998;2022-12-07T03:31:21;1.40;1.40;1.00
45700;PMS5003;36277;32.852;-116.998;2022-12-07T03:34:06;0.00;0.00;0.00
45700;PMS5003;36277;32.852;-116.998;2022-12-07T03:37:00;1.00;1.00;0.40
45700;PMS5003;36277;32.852;-116.998;2022-12-07T03:42:05;1.00;1.00;1.00
45700;PMS5003;36277;32.852;-116.998;2022-12-07T03:44:34;1.00;1.00;1.00
45700;PMS5003;36277;32.852;-116.998;2022-12-07T03:47:03;1.00;1.00;1.00
45700;PMS5003;36277;32.852;-116.998;2022-12-07T03:49:49;0.40;0.40;0.40
45700;PMS5003;36277;32.852;-116.998;2022-12-07T03:53:18;1.00;1.00;1.00
45700;PMS5003;36277;32.852;-116.998;2022-12-07T03:55:28;0.80;0.80;0.40
45700;PMS5003;36277;32.852;-116.998;2022-12-07T03:58:00;1.00;1.00;1.00
45700;PMS5003;36277;32.852;-116.998;2022-12-07T04:00:30;1.00;1.00;1.00
45700;PMS5003;36277;32.852;-116.998;2022-12-07T04:02:57;1.00;1.00;1.00
45700;PMS5003;36277;32.852;-116.998;2022-12-07T04:05:24;1.00;1.00;1.00
45700;PMS5003;36277;32.852;-116.998;2022-12-07T04:07:51;1.00;1.00;1.00
45700;PMS5003;36277;32.852;-116.998;2022-12-07T04:10:17;1.00;1.00;1.00
45700;PMS5003;36277;32.852;-116.998;2022-12-07T04:12:44;1.80;1.80;1.00
45700;PMS5003;36277;32.852;-116.998;2022-12-07T04:15:10;1.60;1.60;1.60
45700;PMS5003;36277;32.852;-116.998;2022-12-07T04:17:36;1.80;1.80;1.40
45700;PMS5003;36277;32.852;-116.998;2022-12-07T04:20:03;1.40;1.40;1.00
45700;PMS5003;36277;32.852;-116.998;2022-12-07T04:22:30;1.00;1.00;1.00
45700;PMS5003;36277;32.852;-116.998;2022-12-07T04:24:57;1.20;1.20;1.20
45700;PMS5003;36277;32.852;-116.998;2022-12-07T04:27:23;2.00;2.00;2.00
45700;PMS5003;36277;32.852;-116.998;2022-12-07T04:29:49;3.00;3.00;2.20
45700;PMS5003;36277;32.852;-116.998;2022-12-07T04:32:15;3.00;3.00;3.00
45700;PMS5003;36277;32.852;-116.998;2022-12-07T04:34:42;2.00;2.00;2.00
45700;PMS5003;36277;32.852;-116.998;2022-12-07T04:37:08;1.80;1.80;1.00
45700;PMS5003;36277;32.852;-116.998;2022-12-07T04:39:34;2.00;2.00;2.00
45700;PMS5003;36277;32.852;-116.998;2022-12-07T04:42:01;3.00;3.00;2.40
45700;PMS5003;36277;32.852;-116.998;2022-12-07T04:44:28;1.20;1.20;1.00
45700;PMS5003;36277;32.852;-116.998;2022-12-07T04:46:55;1.00;1.00;1.00
45700;PMS5003;36277;32.852;-116.998;2022-12-07T04:49:22;2.00;2.00;1.60
45700;PMS5003;36277;32.852;-116.998;2022-12-07T04:51:49;1.60;1.60;1.60
45700;PMS5003;36277;32.852;-116.998;2022-12-07T04:54:16;1.00;1.00;0.60
45700;PMS5003;36277;32.852;-116.998;2022-12-07T04:56:43;1.00;1.00;1.00
45700;PMS5003;36277;32.852;-116.998;2022-12-07T04:59:10;1.80;1.80;1.60
45700;PMS5003;36277;32.852;-116.998;2022-12-07T05:01:37;2.00;2.00;1.60
45700;PMS5003;36277;32.852;-116.998;2022-12-07T05:04:04;2.00;2.00;1.40
45700;PMS5003;36277;32.852;-116.998;2022-12-07T05:06:31;1.00;1.00;1.00
45700;PMS5003;36277;32.852;-116.998;2022-12-07T05:08:57;1.80;1.80;1.80
45700;PMS5003;36277;32.852;-116.998;2022-12-07T05:11:24;1.60;1.60;1.40
45700;PMS5003;36277;32.852;-116.998;2022-12-07T05:16:34;2.00;2.00;2.00
45700;PMS5003;36277;32.852;-116.998;2022-12-07T05:19:01;1.00;1.00;1.00
45700;PMS5003;36277;32.852;-116.998;2022-12-07T05:21:28;2.00;2.00;2.00
45700;PMS5003;36277;32.852;-116.998;2022-12-07T05:23:54;2.60;2.00;2.00
45700;PMS5003;36277;32.852;-116.998;2022-12-07T05:26:21;1.60;1.60;1.20
45700;PMS5003;36277;32.852;-116.998;2022-12-07T05:28:54;1.40;1.40;1.00
45700;PMS5003;36277;32.852;-116.998;2022-12-07T05:31:21;1.00;1.00;1.00
45700;PMS5003;36277;32.852;-116.998;2022-12-07T05:33:48;1.00;1.00;1.00
45700;PMS5003;36277;32.852;-116.998;2022-12-07T05:36:14;1.00;1.00;0.40
45700;PMS5003;36277;32.852;-116.998;2022-12-07T05:38:41;2.00;2.00;1.80
45700;PMS5003;36277;32.852;-116.998;2022-12-07T05:41:08;2.00;2.00;2.00
45700;PMS5003;36277;32.852;-116.998;2022-12-07T05:43:57;2.60;2.60;2.40
45700;PMS5003;36277;32.852;-116.998;2022-12-07T05:46:23;1.80;1.80;1.00
45700;PMS5003;36277;32.852;-116.998;2022-12-07T05:48:50;2.40;2.40;2.00
45700;PMS5003;36277;32.852;-116.998;2022-12-07T05:51:16;1.20;1.20;1.00
45700;PMS5003;36277;32.852;-116.998;2022-12-07T05:53:43;1.60;1.60;1.20
45700;PMS5003;36277;32.852;-116.998;2022-12-07T05:56:09;2.20;2.20;1.20
45700;PMS5003;36277;32.852;-116.998;2022-12-07T05:58:35;2.00;2.00;2.00
45700;PMS5003;36277;32.852;-116.998;2022-12-07T06:01:20;1.20;1.20;1.00
45700;PMS5003;36277;32.852;-116.998;2022-12-07T06:03:46;2.00;2.00;2.00
45700;PMS5003;36277;32.852;-116.998;2022-12-07T06:06:12;2.00;2.00;2.00
45700;PMS5003;36277;32.852;-116.998;2022-12-07T06:08:39;2.00;2.00;1.40
45700;PMS5003;36277;32.852;-116.998;2022-12-07T06:11:05;1.60;1.60;1.40
45700;PMS5003;36277;32.852;-116.998;2022-12-07T06:13:49;1.60;1.60;1.00
45700;PMS5003;36277;32.852;-116.998;2022-12-07T06:16:16;1.00;1.00;1.00
45700;PMS5003;36277;32.852;-116.998;2022-12-07T06:18:42;3.00;3.00;2.60
45700;PMS5003;36277;32.852;-116.998;2022-12-07T06:21:08;3.00;3.00;3.00
45700;PMS5003;36277;32.852;-116.998;2022-12-07T06:23:34;1.40;1.40;1.00
45700;PMS5003;36277;32.852;-116.998;2022-12-07T06:26:01;1.60;1.60;1.60
45700;PMS5003;36277;32.852;-116.998;2022-12-07T06:28:27;1.00;1.00;1.00
45700;PMS5003;36277;32.852;-116.998;2022-12-07T06:30:57;1.00;1.00;1.00
45700;PMS5003;36277;32.852;-116.998;2022-12-07T06:33:24;1.00;1.00;1.00
45700;PMS5003;36277;32.852;-116.998;2022-12-07T06:35:51;0.40;0.40;0.00
45700;PMS5003;36277;32.852;-116.998;2022-12-07T06:38:17;2.00;2.00;2.00
45700;PMS5003;36277;32.852;-116.998;2022-12-07T06:40:44;2.00;2.00;2.00
45700;PMS5003;36277;32.852;-116.998;2022-12-07T06:43:10;1.80;1.80;1.40
45700;PMS5003;36277;32.852;-116.998;2022-12-07T06:45:36;1.60;1.60;1.00
45700;PMS5003;36277;32.852;-116.998;2022-12-07T06:48:03;2.00;2.00;2.00
45700;PMS5003;36277;32.852;-116.998;2022-12-07T06:50:29;2.00;2.00;1.60
45700;PMS5003;36277;32.852;-116.998;2022-12-07T06:52:55;0.40;0.40;0.40
45700;PMS5003;36277;32.852;-116.998;2022-12-07T06:55:22;1.00;1.00;1.00
45700;PMS5003;36277;32.852;-116.998;2022-12-07T06:57:48;1.00;1.00;1.00
45700;PMS5003;36277;32.852;-116.998;2022-12-07T07:00:14;1.00;1.00;1.00
45700;PMS5003;36277;32.852;-116.998;2022-12-07T07:02:41;1.00;1.00;1.00
45700;PMS5003;36277;32.852;-116.998;2022-12-07T07:05:07;1.00;1.00;1.00
45700;PMS5003;36277;32.852;-116.998;2022-12-07T07:07:34;1.00;1.00;1.00
45700;PMS5003;36277;32.852;-116.998;2022-12-07T07:10:00;1.00;1.00;1.00
45700;PMS5003;36277;32.852;-116.998;2022-12-07T07:12:26;1.00;1.00;1.00
45700;PMS5003;36277;32.852;-116.998;2022-12-07T07:14:52;1.00;1.00;1.00
45700;PMS5003;36277;32.852;-116.998;2022-12-07T07:17:19;1.20;1.20;1.00
45700;PMS5003;36277;32.852;-116.998;2022-12-07T07:19:46;2.00;2.00;1.00
45700;PMS5003;36277;32.852;-116.998;2022-12-07T07:22:12;1.00;1.00;0.80
45700;PMS5003;36277;32.852;-116.998;2022-12-07T07:24:38;1.00;1.00;1.00
45700;PMS5003;36277;32.852;-116.998;2022-12-07T07:27:04;1.00;1.00;1.00
45700;PMS5003;36277;32.852;-116.998;2022-12-07T07:29:31;1.00;1.00;1.00
45700;PMS5003;36277;32.852;-116.998;2022-12-07T07:31:57;0.60;0.60;0.40
45700;PMS5003;36277;32.852;-116.998;2022-12-07T07:34:23;0.60;0.60;0.20
45700;PMS5003;36277;32.852;-116.998;2022-12-07T07:36:49;1.00;1.00;1.00
45700;PMS5003;36277;32.852;-116.998;2022-12-07T07:39:16;1.00;1.00;1.00
45700;PMS5003;36277;32.852;-116.998;2022-12-07T07:41:42;0.20;0.20;0.20
45700;PMS5003;36277;32.852;-116.998;2022-12-07T07:44:09;1.00;1.00;1.00
45700;PMS5003;36277;32.852;-116.998;2022-12-07T07:46:35;1.00;1.00;1.00
45700;PMS5003;36277;32.852;-116.998;2022-12-07T07:49:01;1.00;1.00;0.80
45700;PMS5003;36277;32.852;-116.998;2022-12-07T07:51:28;1.00;1.00;1.00
45700;PMS5003;36277;32.852;-116.998;2022-12-07T07:53:54;2.40;2.40;2.00
45700;PMS5003;36277;32.852;-116.998;2022-12-07T07:56:20;1.00;1.00;1.00
45700;PMS5003;36277;32.852;-116.998;2022-12-07T07:58:46;0.40;0.40;0.40
45700;PMS5003;36277;32.852;-116.998;2022-12-07T08:01:13;0.60;0.60;0.00
45700;PMS5003;36277;32.852;-116.998;2022-12-07T08:03:40;0.60;0.60;0.60
45700;PMS5003;36277;32.852;-116.998;2022-12-07T08:06:06;1.00;1.00;1.00
45700;PMS5003;36277;32.852;-116.998;2022-12-07T08:08:32;0.60;0.60;0.40
45700;PMS5003;36277;32.852;-116.998;2022-12-07T08:10:58;1.00;1.00;1.00
45700;PMS5003;36277;32.852;-116.998;2022-12-07T08:13:26;0.00;0.00;0.00
45700;PMS5003;36277;32.852;-116.998;2022-12-07T08:15:53;1.00;1.00;0.20
45700;PMS5003;36277;32.852;-116.998;2022-12-07T08:18:19;1.00;1.00;1.00
45700;PMS5003;36277;32.852;-116.998;2022-12-07T08:20:45;1.00;1.00;1.00
45700;PMS5003;36277;32.852;-116.998;2022-12-07T08:23:12;1.00;1.00;0.40
45700;PMS5003;36277;32.852;-116.998;2022-12-07T08:25:38;1.00;1.00;1.00
45700;PMS5003;36277;32.852;-116.998;2022-12-07T08:28:05;1.00;1.00;1.00
45700;PMS5003;36277;32.852;-116.998;2022-12-07T08:30:32;1.00;1.00;1.00
45700;PMS5003;36277;32.852;-116.998;2022-12-07T08:32:58;1.00;1.00;1.00
45700;PMS5003;36277;32.852;-116.998;2022-12-07T08:35:24;1.00;1.00;1.00
45700;PMS5003;36277;32.852;-116.998;2022-12-07T08:37:51;0.00;0.00;0.00
45700;PMS5003;36277;32.852;-116.998;2022-12-07T08:40:17;1.00;1.00;1.00
45700;PMS5003;36277;32.852;-116.998;2022-12-07T08:42:50;1.00;1.00;1.00
45700;PMS5003;36277;32.852;-116.998;2022-12-07T08:45:17;1.00;1.00;1.00
45700;PMS5003;36277;32.852;-116.998;2022-12-07T08:47:46;1.00;1.00;1.00
45700;PMS5003;36277;32.852;-116.998;2022-12-07T08:50:23;1.00;1.00;1.00
45700;PMS5003;36277;32.852;-116.998;2022-12-07T08:52:50;1.00;1.00;1.00
45700;PMS5003;36277;32.852;-116.998;2022-12-07T08:55:20;0.00;0.00;0.00
45700;PMS5003;36277;32.852;-116.998;2022-12-07T08:57:47;1.00;1.00;1.00
45700;PMS5003;36277;32.852;-116.998;2022-12-07T09:00:14;1.00;1.00;1.00
45700;PMS5003;36277;32.852;-116.998;2022-12-07T09:02:43;0.00;0.00;0.00
45700;PMS5003;36277;32.852;-116.998;2022-12-07T09:05:09;0.80;0.80;0.80
45700;PMS5003;36277;32.852;-116.998;2022-12-07T09:07:36;1.00;1.00;1.00
45700;PMS5003;36277;32.852;-116.998;2022-12-07T09:10:04;0.60;0.60;0.00
45700;PMS5003;36277;32.852;-116.998;2022-12-07T09:12:31;1.00;1.00;1.00
45700;PMS5003;36277;32.852;-116.998;2022-12-07T09:14:57;0.00;0.00;0.00
45700;PMS5003;36277;32.852;-116.998;2022-12-07T09:17:25;1.00;1.00;1.00
45700;PMS5003;36277;32.852;-116.998;2022-12-07T09:19:52;0.00;0.00;0.00
45700;PMS5003;36277;32.852;-116.998;2022-12-07T09:22:18;0.00;0.00;0.00
45700;PMS5003;36277;32.852;-116.998;2022-12-07T09:24:44;1.00;1.00;1.00
45700;PMS5003;36277;32.852;-116.998;2022-12-07T09:27:11;0.60;0.60;0.60
45700;PMS5003;36277;32.852;-116.998;2022-12-07T09:29:38;1.00;1.00;1.00
45700;PMS5003;36277;32.852;-116.998;2022-12-07T09:32:04;0.00;0.00;0.00
45700;PMS5003;36277;32.852;-116.998;2022-12-07T09:34:31;1.00;1.00;1.00
45700;PMS5003;36277;32.852;-116.998;2022-12-07T09:36:57;1.00;1.00;1.00
45700;PMS5003;36277;32.852;-116.998;2022-12-07T09:39:25;1.00;1.00;1.00
45700;PMS5003;36277;32.852;-116.998;2022-12-07T09:41:52;1.00;1.00;1.00
45700;PMS5003;36277;32.852;-116.998;2022-12-07T09:44:21;0.00;0.00;0.00
45700;PMS5003;36277;32.852;-116.998;2022-12-07T09:46:50;0.00;0.00;0.00
45700;PMS5003;36277;32.852;-116.998;2022-12-07T09:49:21;1.00;1.00;1.00
45700;PMS5003;36277;32.852;-116.998;2022-12-07T09:52:27;0.60;0.60;0.60
45700;PMS5003;36277;32.852;-116.998;2022-12-07T09:54:50;1.00;1.00;1.00
45700;PMS5003;36277;32.852;-116.998;2022-12-07T09:57:17;0.00;0.00;0.00
45700;PMS5003;36277;32.852;-116.998;2022-12-07T09:59:47;0.40;0.40;0.00
45700;PMS5003;36277;32.852;-116.998;2022-12-07T10:02:47;0.00;0.00;0.00
45700;PMS5003;36277;32.852;-116.998;2022-12-07T10:05:13;1.00;1.00;1.00
45700;PMS5003;36277;32.852;-116.998;2022-12-07T10:07:43;0.80;0.80;0.40
45700;PMS5003;36277;32.852;-116.998;2022-12-07T10:10:13;0.80;0.80;0.80
45700;PMS5003;36277;32.852;-116.998;2022-12-07T10:15:21;0.00;0.00;0.00
45700;PMS5003;36277;32.852;-116.998;2022-12-07T10:17:48;1.00;1.00;1.00
45700;PMS5003;36277;32.852;-116.998;2022-12-07T10:25:30;1.00;1.00;1.00
45700;PMS5003;36277;32.852;-116.998;2022-12-07T10:30:48;1.00;1.00;1.00
45700;PMS5003;36277;32.852;-116.998;2022-12-07T10:36:24;1.00;1.00;1.00
45700;PMS5003;36277;32.852;-116.998;2022-12-07T10:39:04;0.20;0.20;0.20
45700;PMS5003;36277;32.852;-116.998;2022-12-07T10:41:58;0.60;0.60;0.40
45700;PMS5003;36277;32.852;-116.998;2022-12-07T10:44:29;0.00;0.00;0.00
45700;PMS5003;36277;32.852;-116.998;2022-12-07T10:47:09;1.00;1.00;0.60
45700;PMS5003;36277;32.852;-116.998;2022-12-07T10:55:48;0.00;0.00;0.00
45700;PMS5003;36277;32.852;-116.998;2022-12-07T10:58:59;0.00;0.00;0.00
45700;PMS5003;36277;32.852;-116.998;2022-12-07T11:01:39;1.00;1.00;1.00
45700;PMS5003;36277;32.852;-116.998;2022-12-07T11:07:34;0.00;0.00;0.00
45700;PMS5003;36277;32.852;-116.998;2022-12-07T11:10:05;0.00;0.00;0.00
45700;PMS5003;36277;32.852;-116.998;2022-12-07T11:13:16;1.00;1.00;0.60
45700;PMS5003;36277;32.852;-116.998;2022-12-07T11:18:35;0.00;0.00;0.00
45700;PMS5003;36277;32.852;-116.998;2022-12-07T11:21:07;0.80;0.80;0.60
45700;PMS5003;36277;32.852;-116.998;2022-12-07T11:26:30;0.60;0.60;0.40
45700;PMS5003;36277;32.852;-116.998;2022-12-07T11:37:33;1.00;1.00;1.00
45700;PMS5003;36277;32.852;-116.998;2022-12-07T11:40:03;0.00;0.00;0.00
45700;PMS5003;36277;32.852;-116.998;2022-12-07T11:42:46;0.00;0.00;0.00
45700;PMS5003;36277;32.852;-116.998;2022-12-07T11:45:28;0.00;0.00;0.00
45700;PMS5003;36277;32.852;-116.998;2022-12-07T11:48:03;0.00;0.00;0.00
45700;PMS5003;36277;32.852;-116.998;2022-12-07T11:56:16;0.60;0.60;0.40
45700;PMS5003;36277;32.852;-116.998;2022-12-07T12:04:16;0.00;0.00;0.00
45700;PMS5003;36277;32.852;-116.998;2022-12-07T12:06:54;1.00;1.00;1.00
45700;PMS5003;36277;32.852;-116.998;2022-12-07T12:09:41;1.00;1.00;1.00
45700;PMS5003;36277;32.852;-116.998;2022-12-07T12:12:31;0.00;0.00;0.00
45700;PMS5003;36277;32.852;-116.998;2022-12-07T12:21:07;0.00;0.00;0.00
45700;PMS5003;36277;32.852;-116.998;2022-12-07T12:26:26;0.00;0.00;0.00
45700;PMS5003;36277;32.852;-116.998;2022-12-07T12:31:39;0.00;0.00;0.00
45700;PMS5003;36277;32.852;-116.998;2022-12-07T12:36:56;1.00;1.00;0.80
45700;PMS5003;36277;32.852;-116.998;2022-12-07T12:39:22;0.20;0.20;0.00
45700;PMS5003;36277;32.852;-116.998;2022-12-07T12:47:01;0.00;0.00;0.00
45700;PMS5003;36277;32.852;-116.998;2022-12-07T12:51:59;0.60;0.60;0.60
45700;PMS5003;36277;32.852;-116.998;2022-12-07T12:54:58;0.00;0.00;0.00
45700;PMS5003;36277;32.852;-116.998;2022-12-07T12:57:34;0.00;0.00;0.00
45700;PMS5003;36277;32.852;-116.998;2022-12-07T13:00:23;0.00;0.00;0.00
45700;PMS5003;36277;32.852;-116.998;2022-12-07T13:02:53;0.00;0.00;0.00
45700;PMS5003;36277;32.852;-116.998;2022-12-07T13:05:23;1.00;1.00;1.00
45700;PMS5003;36277;32.852;-116.998;2022-12-07T13:07:53;0.00;0.00;0.00
45700;PMS5003;36277;32.852;-116.998;2022-12-07T13:13:00;0.00;0.00;0.00
45700;PMS5003;36277;32.852;-116.998;2022-12-07T13:20:58;0.00;0.00;0.00
45700;PMS5003;36277;32.852;-116.998;2022-12-07T13:26:23;1.00;1.00;1.00
45700;PMS5003;36277;32.852;-116.998;2022-12-07T13:31:42;0.00;0.00;0.00
45700;PMS5003;36277;32.852;-116.998;2022-12-07T13:34:33;0.00;0.00;0.00
45700;PMS5003;36277;32.852;-116.998;2022-12-07T13:37:02;0.00;0.00;0.00
45700;PMS5003;36277;32.852;-116.998;2022-12-07T13:39:35;1.00;1.00;0.20
45700;PMS5003;36277;32.852;-116.998;2022-12-07T13:42:18;0.60;0.60;0.60
45700;PMS5003;36277;32.852;-116.998;2022-12-07T13:44:53;1.40;1.40;1.00
45700;PMS5003;36277;32.852;-116.998;2022-12-07T13:50:27;1.00;1.00;1.00
45700;PMS5003;36277;32.852;-116.998;2022-12-07T13:52:57;0.20;0.20;0.20
45700;PMS5003;36277;32.852;-116.998;2022-12-07T13:55:25;0.00;0.00;0.00
45700;PMS5003;36277;32.852;-116.998;2022-12-07T13:57:52;0.00;0.00;0.00
45700;PMS5003;36277;32.852;-116.998;2022-12-07T14:00:21;0.00;0.00;0.00
45700;PMS5003;36277;32.852;-116.998;2022-12-07T14:03:00;0.00;0.00;0.00
45700;PMS5003;36277;32.852;-116.998;2022-12-07T14:05:33;0.60;0.60;0.60
45700;PMS5003;36277;32.852;-116.998;2022-12-07T14:13:32;0.00;0.00;0.00
45700;PMS5003;36277;32.852;-116.998;2022-12-07T14:16:28;0.00;0.00;0.00
45700;PMS5003;36277;32.852;-116.998;2022-12-07T14:19:05;1.00;1.00;1.00
45700;PMS5003;36277;32.852;-116.998;2022-12-07T14:22:05;0.00;0.00;0.00
45700;PMS5003;36277;32.852;-116.998;2022-12-07T14:24:41;0.00;0.00;0.00
45700;PMS5003;36277;32.852;-116.998;2022-12-07T14:27:16;0.00;0.00;0.00
45700;PMS5003;36277;32.852;-116.998;2022-12-07T14:29:45;0.00;0.00;0.00
45700;PMS5003;36277;32.852;-116.998;2022-12-07T14:32:20;0.00;0.00;0.00
45700;PMS5003;36277;32.852;-116.998;2022-12-07T14:37:26;0.00;0.00;0.00
45700;PMS5003;36277;32.852;-116.998;2022-12-07T14:39:54;0.00;0.00;0.00
45700;PMS5003;36277;32.852;-116.998;2022-12-07T14:42:21;0.60;0.60;0.00
45700;PMS5003;36277;32.852;-116.998;2022-12-07T14:44:51;0.00;0.00;0.00
45700;PMS5003;36277;32.852;-116.998;2022-12-07T14:47:18;0.20;0.20;0.00
45700;PMS5003;36277;32.852;-116.998;2022-12-07T14:49:44;0.00;0.00;0.00
45700;PMS5003;36277;32.852;-116.998;2022-12-07T14:52:17;0.20;0.20;0.20
45700;PMS5003;36277;32.852;-116.998;2022-12-07T14:54:47;0.00;0.00;0.00
45700;PMS5003;36277;32.852;-116.998;2022-12-07T14:57:13;0.00;0.00;0.00
45700;PMS5003;36277;32.852;-116.998;2022-12-07T14:59:40;0.00;0.00;0.00
45700;PMS5003;36277;32.852;-116.998;2022-12-07T15:02:06;0.00;0.00;0.00
45700;PMS5003;36277;32.852;-116.998;2022-12-07T15:04:37;0.00;0.00;0.00
45700;PMS5003;36277;32.852;-116.998;2022-12-07T15:07:04;0.00;0.00;0.00
45700;PMS5003;36277;32.852;-116.998;2022-12-07T15:09:31;0.00;0.00;0.00
45700;PMS5003;36277;32.852;-116.998;2022-12-07T15:11:57;0.00;0.00;0.00
45700;PMS5003;36277;32.852;-116.998;2022-12-07T15:14:24;0.00;0.00;0.00
45700;PMS5003;36277;32.852;-116.998;2022-12-07T15:16:50;0.00;0.00;0.00
45700;PMS5003;36277;32.852;-116.998;2022-12-07T15:19:20;0.00;0.00;0.00
45700;PMS5003;36277;32.852;-116.998;2022-12-07T15:21:50;0.00;0.00;0.00
45700;PMS5003;36277;32.852;-116.998;2022-12-07T15:24:18;0.00;0.00;0.00
45700;PMS5003;36277;32.852;-116.998;2022-12-07T15:26:45;0.00;0.00;0.00
45700;PMS5003;36277;32.852;-116.998;2022-12-07T15:29:13;1.00;1.00;1.00
45700;PMS5003;36277;32.852;-116.998;2022-12-07T15:31:41;1.00;1.00;1.00
45700;PMS5003;36277;32.852;-116.998;2022-12-07T15:34:08;0.80;0.80;0.40
45700;PMS5003;36277;32.852;-116.998;2022-12-07T15:36:35;0.00;0.00;0.00
45700;PMS5003;36277;32.852;-116.998;2022-12-07T15:39:01;0.00;0.00;0.00
45700;PMS5003;36277;32.852;-116.998;2022-12-07T15:41:28;0.60;0.60;0.60
45700;PMS5003;36277;32.852;-116.998;2022-12-07T15:43:54;0.00;0.00;0.00
45700;PMS5003;36277;32.852;-116.998;2022-12-07T15:46:39;1.00;1.00;1.00
45700;PMS5003;36277;32.852;-116.998;2022-12-07T15:49:14;0.00;0.00;0.00
45700;PMS5003;36277;32.852;-116.998;2022-12-07T15:51:42;0.00;0.00;0.00
45700;PMS5003;36277;32.852;-116.998;2022-12-07T15:54:13;0.40;0.40;0.20
45700;PMS5003;36277;32.852;-116.998;2022-12-07T15:56:46;1.00;1.00;0.80
45700;PMS5003;36277;32.852;-116.998;2022-12-07T15:59:12;1.20;1.20;1.00
45700;PMS5003;36277;32.852;-116.998;2022-12-07T16:01:38;1.00;1.00;1.00
45700;PMS5003;36277;32.852;-116.998;2022-12-07T16:04:05;0.00;0.00;0.00
45700;PMS5003;36277;32.852;-116.998;2022-12-07T16:06:31;0.00;0.00;0.00
45700;PMS5003;36277;32.852;-116.998;2022-12-07T16:08:57;1.00;1.00;0.60
45700;PMS5003;36277;32.852;-116.998;2022-12-07T16:11:23;1.20;1.20;1.00
45700;PMS5003;36277;32.852;-116.998;2022-12-07T16:13:50;4.00;4.00;3.20
45700;PMS5003;36277;32.852;-116.998;2022-12-07T16:16:17;34.25;32.50;23.25